Time;durP1;ratioP1;P1;durP2;ratioP2;P2;SDS_P1;SDS_P2;PMS_P1;PMS_P2;Temp;Humidity;BMP_temperature;BMP_pressure;BME280_temperature;BME280_humidity;BME280_pressure;Samples;Min_cycle;Max_cycle;Signal;HPM_P1;HPM_P2
2021/01/01 00:01:38;;;;;;;67.53;33.97;;;2.70;99.90;;;;;;4940621;29;20187;-89
2021/01/01 00:04:05;;;;;;;76.30;31.47;;;3.40;99.90;;;;;;4941596;29;20218;-89
2021/01/01 00:06:30;;;;;;;75.30;33.63;;;2.70;99.90;;;;;;4940806;29;20274;-89
2021/01/01 00:08:57;;;;;;;81.00;34.47;;;2.80;99.90;;;;;;4941522;29;20611;-88
2021/01/01 00:11:23;;;;;;;62.47;27.20;;;3.20;99.90;;;;;;4940356;29;20188;-88
2021/01/01 00:13:49;;;;;;;65.97;30.23;;;2.70;99.90;;;;;;4941510;29;20224;-88
2021/01/01 00:16:15;;;;;;;59.10;24.97;;;3.80;99.90;;;;;;4941672;29;20652;-88
2021/01/01 00:18:42;;;;;;;50.40;23.50;;;3.90;99.90;;;;;;4938818;29;20181;-90
2021/01/01 00:21:08;;;;;;;52.80;25.23;;;2.90;99.90;;;;;;4937317;29;20180;-90
2021/01/01 00:23:34;;;;;;;61.30;27.27;;;3.40;99.90;;;;;;4938569;29;20271;-89
2021/01/01 00:26:00;;;;;;;55.63;23.57;;;2.60;99.90;;;;;;4921380;29;20187;-90
2021/01/01 00:28:26;;;;;;;58.97;25.20;;;2.60;99.90;;;;;;4921259;29;20279;-90
2021/01/01 00:30:52;;;;;;;66.23;28.77;;;2.80;99.90;;;;;;4921180;29;20185;-90
2021/01/01 00:33:18;;;;;;;58.17;25.30;;;2.60;99.90;;;;;;4937093;29;20220;-88
2021/01/01 00:35:44;;;;;;;60.90;26.10;;;4.30;99.90;;;;;;4921923;29;20207;-89
2021/01/01 00:38:09;;;;;;;61.60;24.87;;;2.60;99.90;;;;;;4921263;29;20270;-89
2021/01/01 00:40:36;;;;;;;51.03;23.53;;;2.60;99.90;;;;;;4938551;29;20620;-90
2021/01/01 00:43:02;;;;;;;58.50;26.07;;;3.60;99.90;;;;;;4938016;29;20243;-89
2021/01/01 00:45:27;;;;;;;55.23;25.40;;;2.60;99.90;;;;;;4938683;29;20220;-89
2021/01/01 00:47:53;;;;;;;58.87;24.70;;;4.20;99.90;;;;;;4921375;29;20215;-90
2021/01/01 00:50:19;;;;;;;61.23;25.40;;;3.90;99.90;;;;;;4921105;29;20188;-90
2021/01/01 00:52:44;;;;;;;43.40;19.20;;;2.50;99.90;;;;;;4938198;29;20290;-89
2021/01/01 00:55:11;;;;;;;57.03;23.87;;;3.10;99.90;;;;;;4920946;29;20600;-89
2021/01/01 00:57:36;;;;;;;55.80;22.83;;;2.50;99.90;;;;;;4936761;29;20228;-90
2021/01/01 01:00:06;;;;;;;52.17;23.07;;;2.50;99.90;;;;;;4937962;29;20209;-90
2021/01/01 01:02:32;;;;;;;59.83;24.33;;;2.50;99.90;;;;;;4937053;29;20218;-91
2021/01/01 01:04:58;;;;;;;49.03;22.53;;;2.70;99.90;;;;;;4910190;29;20643;-91
2021/01/01 01:07:24;;;;;;;48.43;25.40;;;2.70;99.90;;;;;;4937065;29;20223;-90
2021/01/01 01:09:50;;;;;;;55.13;24.07;;;4.00;99.90;;;;;;4936765;29;20270;-89
2021/01/01 01:12:18;;;;;;;46.63;22.43;;;2.50;99.90;;;;;;4936478;29;20634;-89
2021/01/01 01:14:43;;;;;;;48.00;24.13;;;2.50;99.90;;;;;;4952399;29;20544;-89
2021/01/01 01:17:09;;;;;;;55.20;24.00;;;2.40;99.90;;;;;;4936299;29;20176;-89
2021/01/01 01:19:34;;;;;;;54.23;23.80;;;2.80;99.90;;;;;;4936576;29;20184;-90
2021/01/01 01:22:00;;;;;;;49.33;22.63;;;3.00;99.90;;;;;;4937517;29;20183;-90
2021/01/01 01:24:26;;;;;;;56.63;23.63;;;2.50;99.90;;;;;;4937506;29;20184;-90
2021/01/01 01:26:51;;;;;;;56.57;23.07;;;2.40;99.90;;;;;;4936182;29;20271;-89
2021/01/01 01:29:17;;;;;;;56.90;23.80;;;2.80;99.90;;;;;;4936311;29;20660;-89
2021/01/01 01:31:42;;;;;;;58.67;24.47;;;2.40;99.90;;;;;;4936420;29;20188;-89
2021/01/01 01:34:08;;;;;;;38.93;19.27;;;2.50;99.90;;;;;;4937142;29;20213;-89
2021/01/01 01:36:34;;;;;;;45.13;21.37;;;2.60;99.90;;;;;;4936176;29;20235;-90
2021/01/01 01:38:59;;;;;;;45.33;19.33;;;2.40;99.90;;;;;;4937230;29;20704;-90
2021/01/01 01:41:25;;;;;;;43.07;19.47;;;2.50;99.90;;;;;;4935867;29;20180;-90
2021/01/01 01:43:51;;;;;;;50.70;20.80;;;2.40;99.90;;;;;;4920110;29;20196;-89
2021/01/01 01:46:17;;;;;;;51.70;22.97;;;3.50;99.90;;;;;;4936148;29;20532;-89
2021/01/01 01:48:44;;;;;;;43.47;20.07;;;2.40;99.90;;;;;;4920222;29;20235;-89
2021/01/01 01:51:11;;;;;;;43.40;20.17;;;2.50;99.90;;;;;;4935303;29;20172;-89
2021/01/01 01:53:44;;;;;;;36.20;18.07;;;3.20;99.90;;;;;;4935790;29;20203;-90
2021/01/01 01:56:11;;;;;;;41.87;18.97;;;3.40;99.90;;;;;;4951649;29;20274;-89
2021/01/01 01:58:39;;;;;;;41.67;19.40;;;2.40;99.90;;;;;;4937086;29;20239;-89
2021/01/01 02:01:05;;;;;;;42.57;19.43;;;3.30;99.90;;;;;;4936135;29;20234;-89
2021/01/01 02:03:32;;;;;;;46.07;18.60;;;3.60;99.90;;;;;;4951383;28;20669;-89
2021/01/01 02:05:59;;;;;;;39.87;18.67;;;3.10;99.90;;;;;;4936630;29;20228;-89
2021/01/01 02:08:25;;;;;;;43.17;19.87;;;2.90;99.90;;;;;;4936548;29;20192;-89
2021/01/01 02:10:56;;;;;;;35.73;17.30;;;4.50;99.90;;;;;;4935683;29;20188;-89
2021/01/01 02:13:23;;;;;;;36.07;17.37;;;3.70;99.90;;;;;;4935438;29;20215;-91
2021/01/01 02:15:49;;;;;;;44.13;18.23;;;2.40;99.90;;;;;;4935727;29;20243;-90
2021/01/01 02:18:34;;;;;;;40.53;17.70;;;2.80;99.90;;;;;;4936653;29;20274;-91
2021/01/01 02:20:59;;;;;;;41.30;18.63;;;2.40;99.90;;;;;;4919546;29;20615;-91
2021/01/01 02:23:25;;;;;;;37.67;18.30;;;2.90;99.90;;;;;;4919137;29;20207;-90
2021/01/01 02:25:51;;;;;;;34.37;15.57;;;2.50;99.90;;;;;;4935321;29;20275;-90
2021/01/01 02:28:17;;;;;;;38.60;16.17;;;3.30;99.90;;;;;;4936498;29;20262;-90
2021/01/01 02:30:42;;;;;;;33.73;16.03;;;3.10;99.90;;;;;;4936484;29;20198;-90
2021/01/01 02:33:08;;;;;;;34.37;17.40;;;2.50;99.90;;;;;;4919487;29;20725;-90
2021/01/01 02:35:34;;;;;;;41.13;19.70;;;3.00;99.90;;;;;;4934816;29;20211;-90
2021/01/01 02:37:59;;;;;;;39.67;21.23;;;2.40;99.90;;;;;;4919225;29;20184;-90
2021/01/01 02:40:25;;;;;;;39.73;19.43;;;2.50;99.90;;;;;;4918967;29;20211;-91
2021/01/01 02:42:51;;;;;;;37.03;18.37;;;3.80;99.90;;;;;;4935775;29;20189;-91
2021/01/01 02:45:16;;;;;;;44.33;18.80;;;2.50;99.90;;;;;;4919090;29;20663;-92
2021/01/01 02:47:42;;;;;;;41.13;20.03;;;2.50;99.90;;;;;;4919205;29;20180;-91
2021/01/01 02:50:08;;;;;;;40.50;17.83;;;2.50;99.90;;;;;;4936184;29;20176;-91
2021/01/01 02:52:34;;;;;;;37.30;18.10;;;2.40;99.90;;;;;;4903182;29;20230;-90
2021/01/01 02:54:59;;;;;;;36.87;18.50;;;3.30;99.90;;;;;;4919348;29;20187;-91
2021/01/01 02:57:25;;;;;;;34.77;17.57;;;2.90;99.90;;;;;;4918954;29;20233;-91
2021/01/01 02:59:50;;;;;;;35.77;17.33;;;2.50;99.90;;;;;;4935989;29;20669;-91
2021/01/01 03:02:16;;;;;;;35.10;17.93;;;2.50;99.90;;;;;;4919214;29;20215;-91
2021/01/01 03:04:41;;;;;;;33.33;17.70;;;3.10;99.90;;;;;;4935706;29;20232;-91
2021/01/01 03:07:07;;;;;;;35.33;17.07;;;2.50;99.90;;;;;;4919230;29;20529;-88
2021/01/01 03:09:33;;;;;;;35.97;16.67;;;2.60;99.90;;;;;;4918723;29;20216;-89
2021/01/01 03:11:58;;;;;;;36.50;16.63;;;2.50;99.90;;;;;;4935952;29;20183;-89
2021/01/01 03:14:24;;;;;;;37.73;16.80;;;2.50;99.90;;;;;;4934576;29;20226;-89
2021/01/01 03:16:50;;;;;;;36.97;17.60;;;2.40;99.90;;;;;;4934817;29;20228;-89
2021/01/01 03:19:15;;;;;;;40.13;18.80;;;4.20;99.90;;;;;;4918800;29;20182;-89
2021/01/01 03:21:41;;;;;;;38.47;17.50;;;4.10;99.90;;;;;;4918610;29;20525;-89
2021/01/01 03:24:07;;;;;;;37.90;16.43;;;2.50;99.90;;;;;;4935890;29;20191;-89
2021/01/01 03:26:32;;;;;;;34.23;16.93;;;2.50;99.90;;;;;;4935648;29;20196;-89
2021/01/01 03:28:58;;;;;;;40.10;18.00;;;2.50;99.90;;;;;;4918854;29;20180;-90
2021/01/01 03:31:24;;;;;;;36.30;18.40;;;2.40;99.90;;;;;;4918905;29;20235;-90
2021/01/01 03:33:50;;;;;;;38.10;17.77;;;2.40;99.90;;;;;;4918720;29;20693;-90
2021/01/01 03:36:16;;;;;;;38.63;19.27;;;2.40;99.90;;;;;;4936102;29;20187;-89
2021/01/01 03:38:42;;;;;;;32.87;15.90;;;2.40;99.90;;;;;;4936273;29;20208;-90
2021/01/01 03:41:08;;;;;;;35.47;16.77;;;2.40;99.90;;;;;;4921252;29;20191;-90
2021/01/01 03:43:33;;;;;;;32.83;15.50;;;4.00;99.90;;;;;;4920939;29;20550;-90
2021/01/01 03:45:59;;;;;;;33.83;16.47;;;2.40;99.90;;;;;;4937447;29;20181;-89
2021/01/01 03:48:24;;;;;;;33.07;15.53;;;3.10;99.90;;;;;;4935380;29;20189;-88
2021/01/01 03:50:50;;;;;;;30.67;15.83;;;3.50;99.90;;;;;;4918477;29;20546;-89
2021/01/01 03:53:16;;;;;;;23.63;14.40;;;2.30;99.90;;;;;;4934103;29;20239;-89
2021/01/01 03:55:41;;;;;;;30.80;14.20;;;3.10;99.90;;;;;;4937605;29;20227;-88
2021/01/01 03:58:07;;;;;;;27.63;14.00;;;2.40;99.90;;;;;;4922128;29;20194;-89
2021/01/01 04:00:33;;;;;;;28.50;14.37;;;3.80;99.90;;;;;;4921915;29;20184;-90
2021/01/01 04:02:59;;;;;;;29.87;14.93;;;2.30;99.90;;;;;;4922045;29;20266;-89
2021/01/01 04:05:24;;;;;;;26.20;13.10;;;2.40;99.90;;;;;;4938925;29;20262;-90
2021/01/01 04:07:50;;;;;;;24.97;12.10;;;2.40;99.90;;;;;;4939142;29;20566;-89
2021/01/01 04:10:15;;;;;;;27.97;13.23;;;2.40;99.90;;;;;;4922044;29;20189;-90
2021/01/01 04:12:41;;;;;;;23.57;13.13;;;2.30;99.90;;;;;;4921683;29;20208;-89
2021/01/01 04:15:07;;;;;;;23.30;13.03;;;2.30;99.90;;;;;;4922188;29;20192;-91
2021/01/01 04:17:33;;;;;;;23.50;11.30;;;2.40;99.90;;;;;;4921991;29;20196;-92
2021/01/01 04:19:58;;;;;;;19.67;10.33;;;3.60;99.90;;;;;;4939177;29;20188;-89
2021/01/01 04:22:24;;;;;;;19.30;11.73;;;2.30;99.90;;;;;;4921699;29;20641;-90
2021/01/01 04:24:50;;;;;;;16.67;10.07;;;3.60;99.90;;;;;;4937374;29;20192;-91
2021/01/01 04:27:16;;;;;;;19.50;10.77;;;2.30;99.90;;;;;;4938707;29;20218;-92
2021/01/01 04:29:41;;;;;;;21.10;11.83;;;2.50;99.90;;;;;;4938845;29;20591;-94
2021/01/01 04:32:07;;;;;;;20.57;11.07;;;3.60;99.90;;;;;;4922284;29;20195;-94
2021/01/01 04:34:33;;;;;;;19.33;10.77;;;2.80;99.90;;;;;;4921788;29;20713;-93
2021/01/01 04:36:58;;;;;;;17.70;9.67;;;2.20;99.90;;;;;;4939287;29;20222;-93
2021/01/01 04:39:24;;;;;;;17.57;10.03;;;2.30;99.90;;;;;;4922097;29;20667;-94
2021/01/01 04:41:52;;;;;;;22.23;10.30;;;3.00;99.90;;;;;;4921929;29;20555;-93
2021/01/01 04:44:19;;;;;;;20.10;11.03;;;3.90;99.90;;;;;;4937505;29;20215;-94
2021/01/01 04:46:46;;;;;;;20.47;10.60;;;2.20;99.90;;;;;;4937213;29;20279;-93
2021/01/01 04:49:11;;;;;;;24.67;12.43;;;2.30;99.90;;;;;;4921588;29;20195;-92
2021/01/01 04:51:37;;;;;;;25.43;11.20;;;2.20;99.90;;;;;;4938624;29;20553;-93
2021/01/01 04:54:03;;;;;;;28.07;11.10;;;2.10;99.90;;;;;;4921710;29;20220;-93
2021/01/01 04:56:29;;;;;;;22.43;9.70;;;2.10;99.90;;;;;;4938578;29;20196;-94
2021/01/01 04:58:55;;;;;;;17.57;9.60;;;2.80;99.90;;;;;;4937013;29;20189;-92
2021/01/01 05:01:24;;;;;;;14.73;8.73;;;3.10;99.90;;;;;;4938171;29;20191;-92
2021/01/01 05:03:50;;;;;;;19.17;9.33;;;2.90;99.90;;;;;;4937821;29;20222;-92
2021/01/01 05:06:38;;;;;;;22.77;10.70;;;3.10;99.90;;;;;;4951548;28;20266;-92
2021/01/01 05:09:03;;;;;;;29.13;11.10;;;3.10;99.90;;;;;;4938035;29;20192;-91
2021/01/01 05:11:29;;;;;;;22.27;10.20;;;1.90;99.90;;;;;;4941071;29;20235;-91
2021/01/01 05:14:00;;;;;;;24.97;10.67;;;1.90;99.90;;;;;;4942886;29;20622;-91
2021/01/01 05:16:25;;;;;;;25.80;10.87;;;3.00;99.90;;;;;;4941510;29;20176;-91
2021/01/01 05:18:52;;;;;;;24.77;11.43;;;3.10;99.90;;;;;;4958834;29;20317;-91
2021/01/01 05:21:28;;;;;;;23.27;10.60;;;1.80;99.90;;;;;;4952299;29;20169;-90
2021/01/01 05:23:55;;;;;;;22.30;10.60;;;1.80;99.90;;;;;;4960617;29;20446;-85
2021/01/01 05:26:26;;;;;;;16.67;9.00;;;3.10;99.90;;;;;;4975801;28;20219;-84
2021/01/01 05:28:57;;;;;;;17.67;8.53;;;2.00;99.90;;;;;;4961215;29;20164;-84
2021/01/01 05:31:28;;;;;;;17.13;9.67;;;1.80;99.90;;;;;;4947095;29;20171;-89
2021/01/01 05:34:08;;;;;;;19.97;9.00;;;2.50;99.90;;;;;;4939258;29;20215;-89
2021/01/01 05:36:36;;;;;;;16.00;9.50;;;1.80;99.90;;;;;;4968068;28;20198;-89
2021/01/01 05:39:07;;;;;;;21.00;9.03;;;2.30;99.90;;;;;;4960475;29;20192;-84
2021/01/01 05:41:39;;;;;;;21.77;10.20;;;1.70;99.90;;;;;;4959213;29;20184;-86
2021/01/01 05:44:20;;;;;;;18.83;9.40;;;3.10;99.90;;;;;;4954881;29;20271;-90
2021/01/01 05:47:05;;;;;;;19.17;8.23;;;1.80;99.90;;;;;;4938271;29;20180;-90
2021/01/01 05:49:37;;;;;;;17.80;9.80;;;1.60;99.90;;;;;;4937584;29;20175;-93
2021/01/01 05:52:10;;;;;;;19.40;10.10;;;1.60;99.90;;;;;;4951799;29;20187;-88
2021/01/01 05:54:38;;;;;;;17.77;10.20;;;1.60;99.90;;;;;;4937278;29;20258;-91
2021/01/01 05:57:06;;;;;;;21.27;10.83;;;1.50;99.90;;;;;;4951490;28;20282;-91
2021/01/01 05:59:44;;;;;;;20.07;10.83;;;1.50;99.90;;;;;;4937147;29;20187;-90
2021/01/01 06:02:10;;;;;;;19.67;10.63;;;2.70;99.90;;;;;;4951638;29;20663;-90
2021/01/01 06:04:37;;;;;;;21.70;10.47;;;2.50;99.90;;;;;;4951451;28;20245;-90
2021/01/01 06:07:09;;;;;;;16.90;9.63;;;1.50;99.90;;;;;;4936753;29;20182;-89
2021/01/01 06:09:37;;;;;;;21.03;10.47;;;1.40;99.90;;;;;;4937126;29;20212;-89
2021/01/01 06:12:11;;;;;;;17.20;9.27;;;3.10;99.90;;;;;;4951250;28;20215;-89
2021/01/01 06:14:41;;;;;;;14.67;8.50;;;1.40;99.90;;;;;;4951278;29;20764;-90
2021/01/01 06:17:10;;;;;;;16.63;9.17;;;1.40;99.90;;;;;;4950619;28;20222;-90
2021/01/01 06:19:57;;;;;;;15.97;8.53;;;1.40;99.90;;;;;;4951527;28;20659;-90
2021/01/01 06:22:25;;;;;;;16.50;9.13;;;1.30;99.90;;;;;;4936710;29;20184;-89
2021/01/01 06:25:01;;;;;;;18.07;9.90;;;2.50;99.90;;;;;;4936431;29;20211;-89
2021/01/01 06:27:31;;;;;;;17.40;9.77;;;1.40;99.90;;;;;;4936366;29;20282;-89
2021/01/01 06:29:58;;;;;;;16.50;9.17;;;1.30;99.90;;;;;;4951194;29;20247;-88
2021/01/01 06:32:25;;;;;;;18.30;9.97;;;1.30;99.90;;;;;;4936354;29;20708;-92
2021/01/01 06:34:51;;;;;;;19.73;8.93;;;1.40;99.90;;;;;;4936283;29;20188;-90
2021/01/01 06:37:40;;;;;;;18.37;9.40;;;1.40;99.90;;;;;;4936100;29;20190;-90
2021/01/01 06:40:07;;;;;;;19.17;10.13;;;1.30;99.90;;;;;;4950968;29;20310;-89
2021/01/01 06:42:52;;;;;;;18.33;10.10;;;1.30;99.90;;;;;;4936487;29;20176;-91
2021/01/01 06:45:40;;;;;;;17.77;9.13;;;2.20;99.90;;;;;;4951424;29;20222;-90
2021/01/01 06:48:09;;;;;;;22.23;9.73;;;1.70;99.90;;;;;;4936265;29;20167;-90
2021/01/01 06:50:37;;;;;;;18.93;10.10;;;1.30;99.90;;;;;;4935228;29;20198;-90
2021/01/01 06:53:15;;;;;;;17.23;8.83;;;2.60;99.90;;;;;;4935920;29;20242;-90
2021/01/01 06:55:43;;;;;;;14.07;7.80;;;1.80;99.90;;;;;;4936418;29;20168;-90
2021/01/01 06:58:10;;;;;;;18.57;11.03;;;1.30;99.90;;;;;;4936025;29;20720;-91
2021/01/01 07:00:44;;;;;;;19.20;9.57;;;2.60;99.90;;;;;;4934763;29;20179;-91
2021/01/01 07:03:29;;;;;;;20.07;9.47;;;1.40;99.90;;;;;;4950414;29;20197;-90
2021/01/01 07:06:01;;;;;;;18.07;9.57;;;2.30;99.90;;;;;;4950433;28;20715;-90
2021/01/01 07:08:42;;;;;;;18.37;9.13;;;2.50;99.90;;;;;;4936046;29;20187;-90
2021/01/01 07:11:10;;;;;;;17.63;9.03;;;2.50;99.90;;;;;;4950481;28;20694;-89
2021/01/01 07:13:44;;;;;;;18.93;10.43;;;2.30;99.90;;;;;;4950841;29;20640;-91
2021/01/01 07:16:11;;;;;;;20.07;10.20;;;1.50;99.90;;;;;;4950613;29;20197;-90
2021/01/01 07:18:37;;;;;;;17.50;9.60;;;1.20;99.90;;;;;;4936089;29;20183;-91
2021/01/01 07:21:04;;;;;;;17.80;9.73;;;1.20;99.90;;;;;;4935830;29;20188;-91
2021/01/01 07:23:31;;;;;;;21.37;10.53;;;1.20;99.90;;;;;;4950574;28;20195;-90
2021/01/01 07:25:57;;;;;;;17.87;9.43;;;1.30;99.90;;;;;;4934426;29;20328;-91
2021/01/01 07:28:24;;;;;;;16.40;8.50;;;1.30;99.90;;;;;;4937119;29;20183;-91
2021/01/01 07:30:50;;;;;;;16.47;8.77;;;2.10;99.90;;;;;;4938607;29;20192;-89
2021/01/01 07:33:30;;;;;;;19.10;10.00;;;1.30;99.90;;;;;;4939389;29;20242;-90
2021/01/01 07:36:00;;;;;;;20.17;9.17;;;1.20;99.90;;;;;;4939685;29;20649;-90
2021/01/01 07:38:29;;;;;;;20.93;9.53;;;2.30;99.90;;;;;;4939739;29;20200;-88
2021/01/01 07:40:55;;;;;;;18.03;9.37;;;1.10;99.90;;;;;;4938467;29;20242;-91
2021/01/01 07:43:22;;;;;;;22.13;11.07;;;2.40;99.90;;;;;;4938757;29;20188;-89
2021/01/01 07:45:48;;;;;;;20.70;9.80;;;1.10;99.90;;;;;;4940132;29;20715;-93
2021/01/01 07:48:15;;;;;;;22.40;11.70;;;1.00;99.90;;;;;;4954309;29;20527;-89
2021/01/01 07:50:40;;;;;;;22.30;9.90;;;2.20;99.90;;;;;;4954232;29;20183;-88
2021/01/01 07:53:10;;;;;;;15.50;8.43;;;2.60;99.90;;;;;;4938874;29;20211;-90
2021/01/01 07:55:36;;;;;;;23.43;9.53;;;1.80;99.90;;;;;;4954073;29;20193;-92
2021/01/01 07:58:13;;;;;;;17.63;9.37;;;1.00;99.90;;;;;;4939025;29;20229;-90
2021/01/01 08:00:46;;;;;;;20.20;10.20;;;1.00;99.90;;;;;;4953695;29;20193;-90
2021/01/01 08:03:14;;;;;;;21.20;11.43;;;1.10;99.90;;;;;;4938762;29;20188;-90
2021/01/01 08:05:44;;;;;;;22.73;11.23;;;2.30;99.90;;;;;;4937422;29;20231;-88
2021/01/01 08:08:23;;;;;;;21.03;10.43;;;1.10;99.90;;;;;;4938568;29;20198;-90
2021/01/01 08:10:51;;;;;;;21.93;11.53;;;1.10;99.90;;;;;;4955215;28;20274;-90
2021/01/01 08:13:22;;;;;;;19.57;10.07;;;1.10;99.90;;;;;;4953946;28;20216;-90
2021/01/01 08:15:48;;;;;;;20.83;10.63;;;2.50;99.90;;;;;;4924885;29;20199;-89
2021/01/01 08:18:18;;;;;;;21.33;9.43;;;2.30;99.90;;;;;;4930456;29;20521;-91
2021/01/01 08:20:47;;;;;;;22.43;10.33;;;3.20;99.90;;;;;;4938144;29;20280;-91
2021/01/01 08:23:19;;;;;;;20.43;10.13;;;1.10;99.90;;;;;;4948196;29;20649;-89
2021/01/01 08:25:47;;;;;;;21.40;10.77;;;2.50;99.90;;;;;;4945972;29;20179;-91
2021/01/01 08:28:20;;;;;;;25.63;11.57;;;2.60;99.90;;;;;;4945227;28;20215;-89
2021/01/01 08:30:55;;;;;;;21.73;11.57;;;1.90;99.90;;;;;;4936718;29;20226;-87
2021/01/01 08:33:23;;;;;;;23.13;11.83;;;2.10;99.90;;;;;;4948537;29;20202;-89
2021/01/01 08:35:58;;;;;;;26.27;11.10;;;1.10;99.90;;;;;;4947264;29;20683;-87
2021/01/01 08:38:24;;;;;;;27.47;12.50;;;1.10;99.90;;;;;;4936838;29;20575;-88
2021/01/01 08:40:54;;;;;;;24.93;11.67;;;1.10;99.90;;;;;;4945511;29;20180;-88
2021/01/01 08:43:21;;;;;;;24.90;11.27;;;1.60;99.90;;;;;;4911558;29;20190;-88
2021/01/01 08:45:47;;;;;;;22.40;11.33;;;2.60;99.90;;;;;;4948471;28;20243;-89
2021/01/01 08:48:13;;;;;;;23.47;10.80;;;1.30;99.90;;;;;;4937989;29;20180;-90
2021/01/01 08:50:44;;;;;;;23.70;11.23;;;1.20;99.90;;;;;;4920237;29;20284;-91
2021/01/01 08:53:11;;;;;;;21.13;11.27;;;2.40;99.90;;;;;;4933534;29;20259;-90
2021/01/01 08:55:36;;;;;;;21.50;11.47;;;2.80;99.90;;;;;;4919013;29;20571;-91
2021/01/01 08:58:06;;;;;;;21.70;10.87;;;2.50;99.90;;;;;;4918523;29;20184;-89
2021/01/01 09:00:32;;;;;;;22.77;10.93;;;1.40;99.90;;;;;;4919002;29;20181;-90
2021/01/01 09:02:58;;;;;;;18.60;8.90;;;1.20;99.90;;;;;;4943090;29;20214;-91
2021/01/01 09:05:27;;;;;;;24.33;11.37;;;1.20;99.90;;;;;;4936641;29;20322;-92
2021/01/01 09:08:15;;;;;;;21.40;10.17;;;1.20;99.90;;;;;;4936135;29;20195;-92
2021/01/01 09:10:46;;;;;;;22.30;10.27;;;1.20;99.90;;;;;;4937592;29;20187;-94
2021/01/01 09:13:24;;;;;;;19.87;9.33;;;1.20;99.90;;;;;;4937265;29;20185;-93
2021/01/01 09:16:11;;;;;;;22.63;10.17;;;1.10;99.90;;;;;;4937735;29;20165;-92
2021/01/01 09:18:38;;;;;;;19.73;9.07;;;1.20;99.90;;;;;;4937121;29;20568;-90
2021/01/01 09:21:11;;;;;;;21.23;10.47;;;1.40;99.90;;;;;;4936977;29;20207;-92
2021/01/01 09:23:38;;;;;;;25.37;10.47;;;1.20;99.90;;;;;;4936033;29;20219;-88
2021/01/01 09:26:05;;;;;;;26.70;12.47;;;1.20;99.90;;;;;;4920037;29;20184;-93
2021/01/01 09:28:31;;;;;;;27.13;11.80;;;1.60;99.90;;;;;;4936665;29;20182;-92
2021/01/01 09:30:57;;;;;;;22.27;11.27;;;1.40;99.90;;;;;;4937415;29;20257;-93
2021/01/01 09:33:23;;;;;;;29.13;11.80;;;2.00;99.90;;;;;;4919857;29;20369;-93
2021/01/01 09:35:49;;;;;;;23.57;11.63;;;1.40;99.90;;;;;;4936545;29;20186;-93
2021/01/01 09:38:14;;;;;;;25.20;10.77;;;2.40;99.90;;;;;;4937114;29;20184;-91
2021/01/01 09:40:40;;;;;;;24.70;11.60;;;1.00;99.90;;;;;;4919938;29;20188;-90
2021/01/01 09:43:07;;;;;;;26.43;10.73;;;1.00;99.90;;;;;;4919913;29;20219;-94
2021/01/01 09:45:37;;;;;;;24.80;12.17;;;1.00;99.90;;;;;;4939449;29;20191;-96
2021/01/01 09:48:03;;;;;;;25.57;10.40;;;1.60;99.90;;;;;;4941856;29;20183;-94
2021/01/01 09:50:29;;;;;;;27.00;12.67;;;1.10;99.90;;;;;;4935650;29;20251;-93
2021/01/01 09:52:55;;;;;;;28.17;12.63;;;1.10;99.90;;;;;;4936515;29;20677;-94
2021/01/01 09:55:21;;;;;;;27.63;12.10;;;1.00;99.90;;;;;;4937297;29;20180;-94
2021/01/01 09:57:47;;;;;;;30.50;13.57;;;-0.70;99.90;;;;;;4937199;29;20278;-93
2021/01/01 10:00:15;;;;;;;33.37;13.57;;;3.00;99.90;;;;;;4936151;29;20190;-93
2021/01/01 10:02:42;;;;;;;30.43;13.13;;;0.90;99.90;;;;;;4936329;29;20184;-93
2021/01/01 10:05:40;;;;;;;28.97;13.37;;;0.90;99.90;;;;;;4936008;29;20326;-94
2021/01/01 10:11:12;;;;;;;28.47;13.63;;;1.20;99.90;;;;;;4906701;29;20195;-94
2021/01/01 10:13:37;;;;;;;35.07;15.17;;;1.30;99.90;;;;;;4937103;29;20179;-94
2021/01/01 10:16:09;;;;;;;31.17;14.27;;;1.10;99.90;;;;;;4936801;29;20186;-91
2021/01/01 10:18:35;;;;;;;38.37;16.57;;;1.10;99.90;;;;;;4936444;29;20294;-94
2021/01/01 10:21:02;;;;;;;33.33;15.47;;;2.50;99.90;;;;;;4934731;29;20180;-92
2021/01/01 10:23:28;;;;;;;32.17;12.57;;;1.00;99.90;;;;;;4935461;29;20219;-91
2021/01/01 10:25:53;;;;;;;26.50;12.77;;;1.20;99.90;;;;;;4934472;29;20267;-90
2021/01/01 10:28:19;;;;;;;34.90;15.80;;;2.50;99.90;;;;;;4919139;29;20298;-92
2021/01/01 10:30:45;;;;;;;34.10;16.33;;;3.50;99.90;;;;;;4935838;29;20712;-91
2021/01/01 10:33:12;;;;;;;39.63;16.80;;;0.80;99.90;;;;;;4918724;29;20291;-90
2021/01/01 10:35:37;;;;;;;36.77;18.30;;;2.40;99.90;;;;;;4934381;29;20218;-90
2021/01/01 10:38:03;;;;;;;33.30;16.33;;;0.70;99.90;;;;;;4935827;29;20216;-91
2021/01/01 10:40:29;;;;;;;41.10;18.97;;;1.40;99.90;;;;;;4935402;29;20217;-93
2021/01/01 10:42:56;;;;;;;31.23;12.10;;;1.90;99.90;;;;;;4935260;29;20716;-90
2021/01/01 10:45:22;;;;;;;45.33;19.43;;;0.70;99.90;;;;;;4934316;29;20279;-90
2021/01/01 10:47:48;;;;;;;45.50;18.10;;;2.90;99.90;;;;;;4935372;29;20274;-89
2021/01/01 10:50:14;;;;;;;39.50;18.37;;;0.90;99.90;;;;;;4933663;29;20206;-88
2021/01/01 10:52:40;;;;;;;38.27;17.93;;;0.70;99.90;;;;;;4924355;29;20668;-87
2021/01/01 10:55:06;;;;;;;34.43;15.13;;;0.70;99.90;;;;;;4943533;28;20192;-89
2021/01/01 10:57:32;;;;;;;40.93;19.17;;;0.80;99.90;;;;;;4944786;29;20184;-89
2021/01/01 10:59:58;;;;;;;44.13;20.07;;;1.30;99.90;;;;;;4935072;29;20189;-87
2021/01/01 11:02:24;;;;;;;45.23;21.20;;;1.00;99.90;;;;;;4918716;29;20275;-92
2021/01/01 11:04:49;;;;;;;39.30;17.87;;;1.10;99.90;;;;;;4918939;29;20257;-91
2021/01/01 11:07:15;;;;;;;39.17;17.60;;;2.00;99.90;;;;;;4936531;29;20187;-91
2021/01/01 11:09:41;;;;;;;40.77;18.47;;;0.80;99.90;;;;;;4919204;29;20199;-89
2021/01/01 11:12:08;;;;;;;34.60;16.23;;;1.10;99.90;;;;;;4935372;29;20200;-91
2021/01/01 12:23:49;;;;;;;58.07;25.33;;;0.70;99.90;;;;;;4939080;29;20241;-89
2021/01/01 12:25:51;;;;;;;61.23;24.40;;;1.00;99.90;;;;;;4916435;29;20201;-90
2021/01/01 12:28:18;;;;;;;59.80;24.80;;;0.70;99.90;;;;;;4962370;28;20183;-90
2021/01/01 12:30:43;;;;;;;62.03;26.13;;;1.90;99.90;;;;;;4916863;29;20182;-90
2021/01/01 12:33:10;;;;;;;64.37;26.30;;;0.70;99.90;;;;;;4922025;29;20257;-91
2021/01/01 12:35:37;;;;;;;55.23;22.60;;;0.60;99.90;;;;;;4938632;29;20187;-91
2021/01/01 12:38:08;;;;;;;62.97;26.30;;;1.60;99.90;;;;;;4947701;29;20264;-91
2021/01/01 12:40:35;;;;;;;63.00;25.07;;;2.50;99.90;;;;;;4951485;28;20266;-91
2021/01/01 12:43:02;;;;;;;63.87;25.10;;;0.60;99.90;;;;;;4952126;28;20294;-90
2021/01/01 12:45:28;;;;;;;65.23;26.37;;;2.30;99.90;;;;;;4945793;28;20302;-89
2021/01/01 12:47:55;;;;;;;57.63;24.13;;;0.60;99.90;;;;;;4956693;29;20712;-90
2021/01/01 12:50:21;;;;;;;59.13;25.57;;;0.70;99.90;;;;;;4937485;29;20219;-91
2021/01/01 12:52:54;;;;;;;62.37;25.77;;;1.20;99.90;;;;;;4946018;29;20235;-90
2021/01/01 12:55:20;;;;;;;56.10;24.03;;;1.40;99.90;;;;;;4939179;29;20238;-89
2021/01/01 12:57:46;;;;;;;56.47;25.13;;;0.70;99.90;;;;;;4958008;29;20266;-90
2021/01/01 13:00:12;;;;;;;63.53;23.97;;;2.60;99.90;;;;;;4930501;29;20754;-90
2021/01/01 13:02:38;;;;;;;56.07;23.53;;;0.70;99.90;;;;;;4937450;29;20201;-89
2021/01/01 13:05:04;;;;;;;60.73;25.53;;;0.70;99.90;;;;;;4936646;29;20232;-88
2021/01/01 13:07:30;;;;;;;60.63;25.23;;;0.70;99.90;;;;;;4937019;29;20863;-88
2021/01/01 13:09:58;;;;;;;48.53;20.80;;;0.80;99.90;;;;;;4936697;29;20188;-90
2021/01/01 13:12:23;;;;;;;53.83;22.07;;;0.80;99.90;;;;;;4940387;29;20256;-87
2021/01/01 13:14:49;;;;;;;54.53;21.53;;;0.80;99.90;;;;;;4937737;29;20716;-88
2021/01/01 13:17:15;;;;;;;52.97;21.50;;;2.70;99.90;;;;;;4936257;29;20203;-89
2021/01/01 13:19:40;;;;;;;54.33;22.47;;;0.70;99.90;;;;;;4936477;29;20180;-90
2021/01/01 13:22:06;;;;;;;53.83;22.10;;;2.10;99.90;;;;;;4925648;29;20572;-88
2021/01/01 13:24:31;;;;;;;55.53;23.43;;;1.80;99.90;;;;;;4945388;29;20704;-89
2021/01/01 13:26:57;;;;;;;57.03;22.37;;;0.70;99.90;;;;;;4931033;29;20194;-88
2021/01/01 13:29:23;;;;;;;52.33;22.90;;;1.00;99.90;;;;;;4934023;29;20172;-89
2021/01/01 13:31:48;;;;;;;53.83;22.97;;;2.10;99.90;;;;;;4946532;29;20190;-93
2021/01/01 13:34:14;;;;;;;58.13;24.63;;;0.70;99.90;;;;;;4948896;29;20190;-89
2021/01/01 13:36:41;;;;;;;57.10;24.70;;;2.30;99.90;;;;;;4938435;29;20254;-94
2021/01/01 13:39:07;;;;;;;45.73;19.23;;;0.80;99.90;;;;;;4948307;29;20633;-91
2021/01/01 13:41:39;;;;;;;39.63;17.17;;;1.60;99.90;;;;;;4955817;28;20181;-89
2021/01/01 13:44:05;;;;;;;43.63;19.40;;;1.70;99.90;;;;;;4960658;29;20225;-91
2021/01/01 13:46:35;;;;;;;45.90;20.87;;;0.60;99.90;;;;;;4957322;28;20629;-91
2021/01/01 13:49:00;;;;;;;44.37;19.77;;;1.60;99.90;;;;;;4958994;28;20175;-91
2021/01/01 13:51:27;;;;;;;43.63;20.27;;;1.20;99.90;;;;;;4957816;28;20187;-92
2021/01/01 13:53:53;;;;;;;50.30;21.17;;;1.60;99.90;;;;;;4956010;28;20628;-87